Time;durP1;ratioP1;P1;durP2;ratioP2;P2;SDS_P1;SDS_P2;PMS_P1;PMS_P2;Temp;Humidity;BMP_temperature;BMP_pressure;BME280_temperature;BME280_humidity;BME280_pressure;Samples;Min_cycle;Max_cycle;Signal;HPM_P1;HPM_P2
2022/04/20 00:01:54;;;;;;;;;;;;;;;-0.61;71.88;98211.11;104935;1271;61042;-27
2022/04/20 00:04:23;;;;;;;3.80;2.70;;;;;;;-0.77;72.37;98213.24;105149;1271;75638;-27
2022/04/20 00:06:58;;;;;;;4.00;2.30;;;;;;;-0.92;72.79;98215.31;105123;1271;75857;-27
2022/04/20 00:09:27;;;;;;;4.00;2.40;;;;;;;-1.04;73.34;98213.99;105021;1271;74633;-27
2022/04/20 00:12:16;;;;;;;3.50;1.70;;;;;;;-1.12;73.54;98212.15;105090;1271;63976;-27
2022/04/20 00:14:44;;;;;;;4.80;2.30;;;;;;;-0.52;72.36;98217.12;105167;1271;61048;-27
2022/04/20 00:17:33;;;;;;;5.00;2.70;;;;;;;0.22;69.75;98214.30;105108;1271;76489;-27
2022/04/20 00:20:03;;;;;;;5.40;3.10;;;;;;;0.27;68.73;98217.79;104892;1273;76024;-27
2022/04/20 00:22:33;;;;;;;3.00;2.30;;;;;;;0.08;69.04;98215.14;104619;1271;73147;-27
2022/04/20 00:25:03;;;;;;;3.70;2.40;;;;;;;-0.21;69.48;98217.14;104784;1271;61288;-27
2022/04/20 00:27:37;;;;;;;7.30;2.70;;;;;;;-0.53;70.25;98212.74;104802;1271;61104;-27
2022/04/20 00:30:08;;;;;;;3.40;2.30;;;;;;;-0.77;71.22;98214.61;104710;1271;75707;-27
2022/04/20 00:32:37;;;;;;;6.90;3.10;;;;;;;-0.98;72.02;98214.43;104973;1272;74995;-27
2022/04/20 00:35:10;;;;;;;4.40;3.40;;;;;;;-1.18;72.72;98210.41;105038;1273;74399;-27
2022/04/20 00:37:43;;;;;;;4.80;2.80;;;;;;;-1.35;73.45;98207.45;104701;1272;61157;-27
2022/04/20 00:40:31;;;;;;;5.00;2.90;;;;;;;-1.51;74.05;98204.73;104804;1271;63134;-27
2022/04/20 00:43:00;;;;;;;4.20;2.20;;;;;;;-1.61;74.76;98200.77;104855;1273;75331;-27
2022/04/20 00:45:29;;;;;;;4.10;2.80;;;;;;;-1.12;73.99;98199.70;104730;1273;75946;-27
2022/04/20 00:47:57;;;;;;;4.80;2.50;;;;;;;-0.46;71.38;98202.71;105024;1272;74243;-27
2022/04/20 00:50:40;;;;;;;4.50;2.70;;;;;;;-0.33;70.32;98203.27;105081;1271;60928;-27
2022/04/20 00:53:29;;;;;;;4.20;2.70;;;;;;;-0.51;70.47;98208.05;104973;1271;61199;-28
2022/04/20 00:55:58;;;;;;;5.00;2.60;;;;;;;-0.71;71.02;98213.31;105120;1271;75384;-27
2022/04/20 00:58:27;;;;;;;4.40;2.20;;;;;;;-0.91;71.69;98215.77;105149;1271;75879;-27
2022/04/20 01:01:16;;;;;;;5.90;3.00;;;;;;;-1.13;72.24;98213.91;105097;1271;75769;-27
2022/04/20 01:03:45;;;;;;;4.50;2.40;;;;;;;-1.30;72.65;98213.49;104998;1271;61138;-27
2022/04/20 01:06:35;;;;;;;5.50;3.10;;;;;;;-1.46;73.32;98216.09;104629;1273;62084;-27
2022/04/20 01:09:27;;;;;;;4.90;2.90;;;;;;;-1.62;73.87;98219.38;105057;1271;75483;-27
2022/04/20 01:12:08;;;;;;;5.90;3.20;;;;;;;-1.76;74.32;98215.20;104916;1271;76128;-27
2022/04/20 01:14:57;;;;;;;4.00;2.00;;;;;;;-1.83;75.01;98215.89;104672;1271;74567;-27
2022/04/20 01:17:46;;;;;;;4.90;2.70;;;;;;;-1.06;73.69;98218.50;104677;1271;61260;-27
2022/04/20 01:20:46;;;;;;;3.80;2.30;;;;;;;-0.34;70.63;98222.20;105054;1271;61115;-27
2022/04/20 01:23:38;;;;;;;6.10;3.50;;;;;;;-0.35;69.84;98219.86;104786;1272;75730;-27
2022/04/20 01:26:47;;;;;;;4.70;2.80;;;;;;;-0.64;70.52;98216.52;104863;1271;76081;-28
2022/04/20 01:29:34;;;;;;;6.40;3.40;;;;;;;-0.91;71.35;98208.61;105127;1271;74801;-27
2022/04/20 01:32:38;;;;;;;5.50;3.20;;;;;;;-1.16;72.22;98207.73;104621;1274;61298;-27
2022/04/20 01:35:09;;;;;;;5.80;3.60;;;;;;;-1.32;72.81;98210.55;105166;1271;61065;-27
2022/04/20 01:37:39;;;;;;;6.00;3.40;;;;;;;-1.47;73.31;98206.95;104993;1273;76059;-27
2022/04/20 01:40:09;;;;;;;6.40;3.50;;;;;;;-1.58;74.00;98207.98;104971;1271;75515;-27
2022/04/20 01:42:38;;;;;;;4.80;3.30;;;;;;;-1.68;74.35;98203.30;104683;1271;74580;-27
2022/04/20 01:45:09;;;;;;;4.90;2.90;;;;;;;-1.72;74.54;98209.09;105017;1271;61610;-27
2022/04/20 01:47:47;;;;;;;5.40;3.70;;;;;;;-1.08;73.57;98212.48;105123;1271;61053;-27
2022/04/20 01:51:46;;;;;;;7.20;4.40;;;;;;;-0.38;70.40;98214.08;104974;1271;75598;-27
2022/04/20 01:53:45;;;;;;;7.00;3.90;;;;;;;-0.36;69.67;98211.56;105175;1271;75999;-27
2022/04/20 01:56:22;;;;;;;9.70;4.10;;;;;;;-0.59;70.18;98209.63;104956;1273;74206;-28
2022/04/20 01:59:38;;;;;;;5.50;3.20;;;;;;;-0.87;70.88;98212.85;105100;1271;61172;-27
2022/04/20 02:02:37;;;;;;;8.20;4.10;;;;;;;-1.14;71.89;98209.88;105017;1271;62087;-27
2022/04/20 02:05:34;;;;;;;5.40;3.30;;;;;;;-1.36;72.81;98211.38;104941;1271;75552;-27
2022/04/20 02:08:38;;;;;;;7.10;4.20;;;;;;;-1.53;73.25;98212.70;105096;1271;76798;-27
2022/04/20 02:11:31;;;;;;;6.50;4.10;;;;;;;-1.69;74.21;98215.09;104984;1271;74435;-27
2022/04/20 02:14:30;;;;;;;7.60;4.70;;;;;;;-1.81;74.73;98223.80;105076;1271;62171;-27
2022/04/20 02:17:07;;;;;;;4.60;2.50;;;;;;;-1.87;75.05;98226.63;104943;1272;61148;-27
2022/04/20 02:20:00;;;;;;;6.40;3.40;;;;;;;-1.16;73.61;98224.75;104829;1271;76701;-27
2022/04/20 02:22:30;;;;;;;5.50;3.80;;;;;;;-0.51;70.94;98224.95;104780;1272;75927;-27
2022/04/20 02:25:18;;;;;;;7.30;3.70;;;;;;;-0.45;70.13;98221.73;104967;1271;74924;-28
2022/04/20 02:27:49;;;;;;;6.30;3.30;;;;;;;-0.57;70.23;98228.46;105156;1271;61032;-27
2022/04/20 02:30:17;;;;;;;6.50;3.30;;;;;;;-0.75;70.67;98232.42;104745;1271;61107;-27
2022/04/20 02:32:48;;;;;;;7.30;3.10;;;;;;;-0.94;71.14;98232.30;105111;1271;76278;-26
2022/04/20 02:35:37;;;;;;;6.40;3.20;;;;;;;-1.16;71.56;98231.58;104912;1271;76105;-26
2022/04/20 02:38:14;;;;;;;5.30;3.40;;;;;;;-1.37;72.27;98226.73;104879;1271;74484;-26
2022/04/20 02:40:43;;;;;;;6.00;3.60;;;;;;;-1.52;72.73;98228.80;104798;1272;61572;-25
2022/04/20 02:43:27;;;;;;;5.60;3.50;;;;;;;-1.64;72.73;98236.33;105063;1271;61117;-25
2022/04/20 02:45:56;;;;;;;5.30;3.40;;;;;;;-1.75;72.77;98240.84;105051;1271;75593;-27
2022/04/20 02:48:25;;;;;;;6.10;2.70;;;;;;;-1.80;72.86;98242.81;104918;1273;75087;-25
2022/04/20 02:50:54;;;;;;;3.70;2.40;;;;;;;-1.26;72.84;98243.30;105044;1271;74170;-29
2022/04/20 02:53:23;;;;;;;7.00;3.20;;;;;;;-0.46;70.98;98249.95;105065;1271;61305;-29
2022/04/20 02:55:52;;;;;;;5.20;2.90;;;;;;;-0.26;69.84;98252.75;105106;1271;61347;-27
2022/04/20 02:58:21;;;;;;;6.30;3.30;;;;;;;-0.38;69.37;98251.25;105147;1271;75554;-29
2022/04/20 03:00:54;;;;;;;4.60;2.50;;;;;;;-0.64;69.76;98252.31;104904;1271;76139;-28
2022/04/20 03:03:37;;;;;;;3.70;2.50;;;;;;;-0.91;70.26;98252.24;104798;1271;74561;-28
2022/04/20 03:06:31;;;;;;;4.60;2.60;;;;;;;-1.20;70.75;98255.61;104769;1271;61816;-27
2022/04/20 03:09:05;;;;;;;2.90;2.00;;;;;;;-1.41;71.27;98259.12;104814;1271;62390;-27
2022/04/20 03:11:44;;;;;;;6.40;3.30;;;;;;;-1.59;71.77;98257.71;104854;1273;75554;-26
2022/04/20 03:14:14;;;;;;;4.50;2.40;;;;;;;-1.75;72.39;98256.53;105147;1271;76203;-26
2022/04/20 03:17:03;;;;;;;3.00;1.90;;;;;;;-1.83;73.04;98258.09;104930;1272;74435;-26
2022/04/20 03:19:33;;;;;;;6.60;2.90;;;;;;;-1.19;72.88;98262.21;104912;1271;61245;-26
2022/04/20 03:22:22;;;;;;;4.30;2.60;;;;;;;-0.39;70.66;98269.02;105117;1271;63081;-26
2022/04/20 03:24:52;;;;;;;5.60;2.90;;;;;;;-0.27;70.12;98264.20;104981;1272;75542;-26
2022/04/20 03:27:53;;;;;;;4.80;2.60;;;;;;;-0.43;70.20;98260.90;105071;1271;77595;-26
2022/04/20 03:30:23;;;;;;;4.50;2.50;;;;;;;-0.65;70.97;98263.96;104699;1273;74463;-28
2022/04/20 03:32:52;;;;;;;6.60;2.90;;;;;;;-0.80;71.12;98263.17;104911;1271;61454;-26
2022/04/20 03:35:21;;;;;;;4.70;3.30;;;;;;;-0.94;71.82;98269.93;104870;1271;61043;-26
2022/04/20 03:37:50;;;;;;;5.90;3.00;;;;;;;-1.07;72.71;98270.67;104704;1273;75503;-26
2022/04/20 03:40:19;;;;;;;5.80;3.50;;;;;;;-1.16;73.30;98263.45;105132;1271;75975;-26
2022/04/20 03:42:50;;;;;;;5.70;2.80;;;;;;;-1.28;74.06;98253.27;105091;1271;73162;-26
2022/04/20 03:45:19;;;;;;;5.90;2.90;;;;;;;-1.35;74.68;98253.90;105156;1271;61028;-26
2022/04/20 03:47:48;;;;;;;5.30;3.40;;;;;;;-0.84;74.28;98253.27;105073;1273;62063;-27
2022/04/20 03:50:38;;;;;;;4.00;2.80;;;;;;;-0.18;71.54;98249.76;105004;1272;76730;-27
2022/04/20 03:53:07;;;;;;;4.00;2.70;;;;;;;-0.10;71.00;98246.45;104985;1273;76094;-27
2022/04/20 03:55:36;;;;;;;4.20;2.70;;;;;;;-0.24;71.29;98251.60;105088;1271;74390;-26
2022/04/20 03:58:05;;;;;;;4.90;2.90;;;;;;;-0.45;71.92;98246.83;104949;1273;62699;-26
2022/04/20 04:00:36;;;;;;;5.40;3.00;;;;;;;-0.65;72.49;98246.41;105106;1271;62013;-26
2022/04/20 04:03:05;;;;;;;5.20;2.90;;;;;;;-0.85;73.26;98245.16;105144;1272;75363;-26
2022/04/20 04:05:43;;;;;;;5.00;3.00;;;;;;;-1.03;74.20;98244.44;105044;1271;75810;-26
2022/04/20 04:08:39;;;;;;;3.90;2.50;;;;;;;-1.15;74.83;98245.70;104792;1271;75796;-26
2022/04/20 04:11:10;;;;;;;2.90;2.30;;;;;;;-1.20;74.86;98248.63;105053;1271;62677;-26
2022/04/20 04:13:38;;;;;;;5.60;3.00;;;;;;;-0.62;73.85;98254.26;104775;1273;61258;-27
2022/04/20 04:16:08;;;;;;;3.70;2.70;;;;;;;0.04;71.67;98253.60;104867;1271;75318;-26
2022/04/20 04:18:37;;;;;;;5.30;3.40;;;;;;;0.15;70.55;98252.38;104836;1271;75785;-26
2022/04/20 04:21:28;;;;;;;5.70;3.20;;;;;;;0.07;70.66;98265.23;104763;1271;73330;-26
2022/04/20 04:23:59;;;;;;;4.30;2.30;;;;;;;-0.09;71.36;98271.66;104978;1271;61080;-26
2022/04/20 04:26:34;;;;;;;5.80;3.50;;;;;;;-0.24;71.90;98277.02;104982;1272;61805;-26
2022/04/20 04:29:03;;;;;;;6.90;3.40;;;;;;;-0.32;72.08;98281.31;104807;1271;74339;-26
2022/04/20 04:31:42;;;;;;;5.30;3.40;;;;;;;-0.42;72.57;98278.20;104786;1271;75546;-26
2022/04/20 04:34:13;;;;;;;3.90;2.80;;;;;;;-0.47;72.92;98277.96;104790;1271;74574;-26
2022/04/20 04:36:43;;;;;;;7.00;2.70;;;;;;;-0.50;73.75;98276.73;105143;1271;61108;-26
2022/04/20 04:39:17;;;;;;;6.00;3.70;;;;;;;0.09;72.94;98273.48;104988;1273;61170;-26
2022/04/20 04:41:46;;;;;;;6.20;3.20;;;;;;;0.72;70.85;98271.24;104861;1271;73395;-26
2022/04/20 04:44:18;;;;;;;5.90;3.00;;;;;;;0.95;69.38;98264.23;104885;1271;76074;-26
2022/04/20 04:50:07;;;;;;;3.80;2.70;;;;;;;0.76;70.09;98264.22;104729;1271;61333;-27
2022/04/20 04:52:37;;;;;;;5.30;3.20;;;;;;;0.70;70.48;98266.42;104952;1271;61094;-26
2022/04/20 04:55:08;;;;;;;4.80;3.00;;;;;;;0.64;71.02;98264.00;104785;1271;75970;-27
2022/04/20 04:57:38;;;;;;;3.30;2.40;;;;;;;0.61;71.26;98258.35;104964;1271;74225;-27
2022/04/20 05:00:08;;;;;;;5.90;3.00;;;;;;;0.62;71.60;98251.98;104584;1273;74398;-27
2022/04/20 05:02:51;;;;;;;4.30;2.90;;;;;;;0.69;71.92;98250.58;104777;1272;61258;-27
2022/04/20 05:05:20;;;;;;;5.10;2.00;;;;;;;1.12;71.58;98244.98;104837;1271;61083;-27
2022/04/20 05:07:54;;;;;;;4.80;2.70;;;;;;;2.26;67.91;98245.86;105049;1273;75358;-27
2022/04/20 05:10:23;;;;;;;4.10;2.40;;;;;;;2.95;65.45;98249.02;104939;1271;75790;-27
2022/04/20 05:12:52;;;;;;;5.60;3.30;;;;;;;3.16;63.84;98249.61;104920;1271;73462;-27
2022/04/20 05:15:40;;;;;;;5.30;2.60;;;;;;;3.30;64.10;98257.66;105089;1271;61492;-25
2022/04/20 05:18:11;;;;;;;3.60;2.50;;;;;;;3.31;63.48;98265.65;104838;1271;62097;-26
2022/04/20 05:20:59;;;;;;;4.40;2.50;;;;;;;3.33;62.91;98274.05;105082;1271;72856;-26
2022/04/20 05:23:28;;;;;;;5.90;3.80;;;;;;;3.42;63.38;98268.18;104830;1273;76234;-26
2022/04/20 05:25:57;;;;;;;5.30;2.50;;;;;;;3.55;62.86;98260.48;104776;1271;74378;-25
2022/04/20 05:28:25;;;;;;;4.80;3.30;;;;;;;3.66;62.05;98258.09;104808;1271;61206;-26
2022/04/20 05:30:54;;;;;;;6.00;3.10;;;;;;;3.76;61.85;98256.20;104815;1271;61044;-27
2022/04/20 05:33:24;;;;;;;4.90;2.80;;;;;;;3.76;60.97;98260.17;104842;1271;74249;-28
2022/04/20 05:35:52;;;;;;;4.20;2.90;;;;;;;3.59;60.85;98255.79;104842;1273;74770;-26
2022/04/20 05:43:58;;;;;;;4.80;3.10;;;;;;;3.59;61.05;98254.22;105161;1271;61760;-26
2022/04/20 05:46:28;;;;;;;4.10;2.90;;;;;;;3.56;60.97;98252.55;105129;1271;75320;-26
2022/04/20 05:49:29;;;;;;;3.80;2.80;;;;;;;3.57;59.78;98251.44;104933;1271;77134;-26
2022/04/20 05:52:01;;;;;;;3.60;2.60;;;;;;;3.69;59.79;98241.73;104588;1272;73755;-27
2022/04/20 05:54:30;;;;;;;3.30;2.30;;;;;;;3.80;59.68;98244.96;105050;1271;61262;-27
2022/04/20 05:56:59;;;;;;;6.10;3.00;;;;;;;3.84;58.77;98235.95;104952;1272;61104;-28
2022/04/20 05:59:40;;;;;;;4.30;3.00;;;;;;;3.97;59.30;98240.06;104905;1271;75589;-27
2022/04/20 06:02:09;;;;;;;3.90;2.60;;;;;;;4.25;58.48;98234.73;104958;1271;75802;-27
2022/04/20 06:04:39;;;;;;;5.50;2.90;;;;;;;4.49;57.30;98234.34;104773;1272;74492;-26
2022/04/20 06:07:29;;;;;;;3.40;2.60;;;;;;;4.68;56.62;98230.43;104812;1271;61243;-26
2022/04/20 06:10:42;;;;;;;3.90;2.90;;;;;;;4.82;56.61;98237.70;104880;1271;61901;-25
2022/04/20 06:13:16;;;;;;;6.40;2.90;;;;;;;4.81;56.48;98245.54;104949;1273;75663;-26
2022/04/20 06:16:17;;;;;;;3.10;1.80;;;;;;;4.98;56.17;98238.47;105076;1271;77555;-26
2022/04/20 06:18:56;;;;;;;3.20;2.50;;;;;;;5.12;55.13;98231.66;105096;1271;74059;-26
2022/04/20 06:21:42;;;;;;;4.50;3.50;;;;;;;5.21;54.42;98234.27;105084;1271;61054;-26
2022/04/20 06:24:56;;;;;;;2.70;2.10;;;;;;;5.50;54.45;98243.38;104965;1271;62442;-26
2022/04/20 06:27:45;;;;;;;3.40;2.60;;;;;;;5.83;53.33;98245.45;104669;1271;75325;-26
2022/04/20 06:30:27;;;;;;;3.50;1.90;;;;;;;5.97;52.78;98245.63;105009;1271;75953;-25
2022/04/20 06:33:32;;;;;;;4.60;2.80;;;;;;;5.93;51.81;98251.54;104800;1271;74579;-26
2022/04/20 06:36:01;;;;;;;3.60;2.00;;;;;;;5.91;51.74;98260.51;104921;1271;61506;-26
2022/04/20 06:38:48;;;;;;;5.40;3.00;;;;;;;5.88;51.82;98269.71;104838;1271;61134;-26
2022/04/20 06:42:01;;;;;;;2.10;1.90;;;;;;;5.79;51.69;98260.15;104779;1271;75381;-27
2022/04/20 06:44:49;;;;;;;3.80;1.70;;;;;;;5.79;51.81;98258.63;104872;1271;74801;-27
2022/04/20 06:48:00;;;;;;;2.90;2.50;;;;;;;5.81;51.60;98262.08;104868;1271;75236;-27
2022/04/20 06:58:31;;;;;;;7.30;2.40;;;;;;;5.93;51.59;98259.83;104673;1271;62234;-26
2022/04/20 07:00:32;;;;;;;4.50;3.20;;;;;;;6.16;50.80;98246.49;104518;1276;75023;-26
2022/04/20 07:03:11;;;;;;;4.20;2.50;;;;;;;6.18;50.73;98241.99;104438;1276;75959;-25
2022/04/20 07:06:08;;;;;;;3.80;2.30;;;;;;;6.35;49.33;98238.29;104664;1273;62585;-25
2022/04/20 07:08:45;;;;;;;3.10;2.60;;;;;;;6.51;49.81;98225.89;105169;1272;61151;-25
2022/04/20 07:11:37;;;;;;;2.10;1.80;;;;;;;6.73;49.34;98224.30;105106;1271;75919;-25
2022/04/20 07:14:07;;;;;;;3.20;2.10;;;;;;;6.55;48.73;98215.89;104787;1273;76439;-25
2022/04/20 07:16:36;;;;;;;3.70;2.70;;;;;;;6.73;49.30;98212.73;105063;1271;74384;-25
2022/04/20 07:19:13;;;;;;;3.30;2.70;;;;;;;6.71;49.19;98210.67;105107;1271;61140;-25
2022/04/20 07:21:59;;;;;;;3.40;2.10;;;;;;;6.86;48.86;98222.48;105174;1271;61276;-25
2022/04/20 07:24:31;;;;;;;3.40;2.00;;;;;;;6.88;49.26;98217.95;105082;1271;75600;-25
2022/04/20 07:27:01;;;;;;;4.00;2.90;;;;;;;6.85;49.36;98220.80;105087;1271;76021;-25
2022/04/20 07:29:44;;;;;;;4.10;3.30;;;;;;;6.53;49.91;98216.55;104878;1270;75794;-25
2022/04/20 07:32:37;;;;;;;3.60;3.10;;;;;;;6.56;49.82;98216.55;105047;1271;61173;-25
2022/04/20 07:35:19;;;;;;;2.90;2.40;;;;;;;6.39;50.32;98220.05;105063;1271;61036;-25
2022/04/20 07:37:48;;;;;;;3.30;2.60;;;;;;;6.50;50.55;98219.75;105128;1271;75564;-25
2022/04/20 07:40:35;;;;;;;4.80;2.90;;;;;;;6.53;51.76;98220.52;104955;1273;74712;-27
2022/04/20 07:43:31;;;;;;;4.60;3.80;;;;;;;6.38;52.07;98214.79;104767;1271;75751;-25
2022/04/20 07:46:30;;;;;;;3.40;2.80;;;;;;;6.21;53.30;98220.75;104973;1271;61133;-25
2022/04/20 07:52:49;;;;;;;3.60;3.00;;;;;;;6.90;51.39;98224.20;104790;1271;75571;-26
2022/04/20 07:55:46;;;;;;;3.00;2.40;;;;;;;7.03;50.87;98224.73;104753;1272;75915;-25
2022/04/20 07:58:39;;;;;;;5.90;3.40;;;;;;;7.07;50.77;98226.80;104704;1273;74265;-28
2022/04/20 08:01:29;;;;;;;4.50;3.70;;;;;;;7.27;50.40;98232.30;104773;1271;61183;-27
2022/04/20 08:04:01;;;;;;;5.50;3.10;;;;;;;7.01;51.04;98228.84;104837;1271;62046;-27
2022/04/20 08:06:43;;;;;;;4.50;3.00;;;;;;;7.14;49.70;98227.30;104941;1273;75401;-27
2022/04/20 08:09:13;;;;;;;3.10;2.60;;;;;;;7.19;49.97;98218.77;104872;1271;75019;-27
2022/04/20 08:11:41;;;;;;;3.70;2.70;;;;;;;7.05;49.70;98231.45;104797;1271;74416;-27
2022/04/20 08:14:14;;;;;;;4.40;3.20;;;;;;;7.19;49.55;98242.07;105121;1271;61145;-27
2022/04/20 08:16:52;;;;;;;4.40;3.50;;;;;;;7.31;49.69;98238.95;105107;1271;61059;-27
2022/04/20 08:19:43;;;;;;;3.60;2.80;;;;;;;7.22;49.60;98232.50;105115;1271;76816;-25
2022/04/20 08:22:22;;;;;;;2.50;2.10;;;;;;;6.94;49.96;98230.66;105138;1272;76337;-25
2022/04/20 08:25:12;;;;;;;4.70;3.10;;;;;;;6.52;50.03;98225.65;105116;1271;74606;-25
2022/04/20 08:27:41;;;;;;;4.30;3.10;;;;;;;6.13;51.17;98230.13;104579;1273;554179;-26
2022/04/20 08:30:11;;;;;;;3.70;3.10;;;;;;;6.38;51.09;98238.42;105158;1271;61789;-25
2022/04/20 08:32:41;;;;;;;5.30;2.90;;;;;;;6.26;51.70;98236.33;105147;1271;74590;-25
2022/04/20 08:35:29;;;;;;;2.60;2.10;;;;;;;6.26;51.78;98234.31;105014;1271;77518;-25
2022/04/20 08:37:58;;;;;;;3.10;2.50;;;;;;;6.54;51.43;98237.88;104904;1272;73445;-25
2022/04/20 08:40:29;;;;;;;3.20;2.40;;;;;;;6.73;51.70;98233.26;105152;1271;61088;-28
2022/04/20 08:43:00;;;;;;;2.10;1.30;;;;;;;6.90;50.70;98232.48;105013;1273;62137;-28
2022/04/20 08:45:29;;;;;;;6.30;1.80;;;;;;;6.82;48.69;98226.71;104874;1271;75537;-29
2022/04/20 08:48:18;;;;;;;8.80;1.90;;;;;;;6.81;49.08;98223.89;104919;1271;76490;-27
2022/04/20 08:50:51;;;;;;;3.30;2.40;;;;;;;6.52;50.09;98224.38;104628;1271;74441;-27
2022/04/20 08:53:21;;;;;;;2.70;2.10;;;;;;;6.66;50.95;98217.98;104732;1271;61212;-27
2022/04/20 08:58:51;;;;;;;2.90;1.80;;;;;;;7.13;49.62;98186.83;104921;1271;75428;-27
2022/04/20 09:01:26;;;;;;;3.00;2.50;;;;;;;7.88;49.03;98178.11;104896;1271;75813;-27
2022/04/20 09:03:55;;;;;;;3.10;2.40;;;;;;;7.94;47.46;98173.30;104845;1272;74586;-27
2022/04/20 09:06:44;;;;;;;;;;;;;;;8.14;47.09;98176.09;105063;1271;61160;-27
2022/04/20 09:09:14;;;;;;;3.10;2.50;;;;;;;8.62;46.59;98174.84;104780;1273;61774;-28
2022/04/20 09:12:14;;;;;;;11.80;2.90;;;;;;;8.70;46.05;98172.59;104906;1271;74095;-27
2022/04/20 09:14:43;;;;;;;4.10;3.00;;;;;;;8.67;47.34;98173.65;104942;1272;76053;-28
2022/04/20 09:17:35;;;;;;;8.00;3.10;;;;;;;8.58;48.31;98190.50;104956;1272;75467;-27
2022/04/20 09:20:05;;;;;;;3.20;2.60;;;;;;;9.10;45.47;98194.02;104675;1271;61202;-26
2022/04/20 09:22:35;;;;;;;4.20;2.90;;;;;;;8.37;46.62;98195.79;104741;1272;61016;-26
2022/04/20 09:25:11;;;;;;;3.20;2.30;;;;;;;8.24;46.98;98197.71;104851;1271;75674;-25
2022/04/20 09:28:00;;;;;;;3.80;3.00;;;;;;;8.12;46.75;98190.77;104730;1272;77028;-27
2022/04/20 09:30:37;;;;;;;6.80;3.10;;;;;;;8.25;46.38;98190.58;105038;1271;74383;-28
2022/04/20 09:33:07;;;;;;;4.20;2.90;;;;;;;8.98;46.11;98181.91;105035;1272;61228;-28
2022/04/20 09:35:43;;;;;;;3.20;2.80;;;;;;;8.91;45.69;98186.52;104968;1272;61110;-27
2022/04/20 09:38:13;;;;;;;3.80;3.30;;;;;;;9.21;46.08;98185.07;104913;1272;75342;-27
2022/04/20 09:41:26;;;;;;;;;;;;;;;8.86;45.81;98185.39;104842;1271;76467;-26
2022/04/20 09:44:09;;;;;;;4.00;2.80;;;;;;;8.83;46.32;98190.32;104835;1271;74219;-27
2022/04/20 09:50:11;;;;;;;3.90;2.40;;;;;;;9.51;44.20;98194.50;105168;1271;61119;-28
2022/04/20 09:54:26;;;;;;;5.30;2.80;;;;;;;8.91;46.16;98189.08;101703;1309;615389;-29
2022/04/20 09:57:13;;;;;;;3.20;2.80;;;;;;;8.90;45.61;98192.47;104377;1284;61141;-28
2022/04/20 10:00:01;;;;;;;4.60;2.90;;;;;;;8.53;46.80;98190.96;104319;1284;61962;-28
2022/04/20 10:03:08;;;;;;;3.80;3.30;;;;;;;8.56;46.55;98181.21;103929;1284;75202;-26
2022/04/20 10:05:37;;;;;;;4.00;2.90;;;;;;;7.91;47.01;98182.86;103972;1284;75959;-27
2022/04/20 10:08:05;;;;;;;2.70;2.30;;;;;;;7.91;47.63;98180.46;103677;1284;660325;-26
2022/04/20 10:10:35;;;;;;;4.10;3.00;;;;;;;8.45;47.39;98177.95;104462;1281;61900;-26
2022/04/20 10:13:03;;;;;;;5.70;3.70;;;;;;;8.69;46.05;98170.92;104593;1281;61921;-26
2022/04/20 10:18:29;;;;;;;5.10;3.90;;;;;;;9.37;44.95;98182.21;104375;1280;75994;-26
2022/04/20 10:20:58;;;;;;;6.10;4.20;;;;;;;9.70;44.39;98178.59;104559;1280;73036;-26
2022/04/20 10:23:25;;;;;;;6.30;4.60;;;;;;;10.10;43.55;98174.95;104549;1281;61403;-26
2022/04/20 10:25:57;;;;;;;5.00;4.00;;;;;;;9.95;43.46;98177.48;104668;1278;61143;-25
2022/04/20 10:29:02;;;;;;;4.80;4.00;;;;;;;9.76;44.08;98176.85;104476;1280;75791;-26
2022/04/20 10:31:49;;;;;;;4.70;3.80;;;;;;;9.66;44.01;98182.38;104477;1281;75950;-25
2022/04/20 10:34:21;;;;;;;4.80;3.80;;;;;;;9.25;43.27;98176.09;104487;1280;74417;-25
2022/04/20 10:37:25;;;;;;;3.80;3.10;;;;;;;9.29;43.78;98170.15;104488;1281;62128;-25
2022/04/20 10:40:22;;;;;;;3.10;2.40;;;;;;;10.22;42.25;98161.64;104180;1281;61134;-26
2022/04/20 10:43:20;;;;;;;6.20;3.60;;;;;;;10.93;40.48;98157.08;104183;1280;74723;-26
2022/04/20 10:46:14;;;;;;;5.00;3.70;;;;;;;11.12;39.60;98158.70;104570;1280;77075;-25
2022/04/20 10:48:48;;;;;;;4.20;3.20;;;;;;;10.11;42.25;98156.92;104467;1280;74034;-25
2022/04/20 10:51:17;;;;;;;5.40;4.80;;;;;;;9.47;43.70;98166.23;104370;1281;61332;-26
2022/04/20 10:53:47;;;;;;;5.00;4.00;;;;;;;8.80;44.77;98164.73;104257;1281;61111;-26
2022/04/20 10:56:17;;;;;;;4.10;3.20;;;;;;;9.25;44.69;98158.59;104196;1281;74683;-26
2022/04/20 10:59:04;;;;;;;6.20;4.80;;;;;;;9.28;44.51;98162.41;104212;1278;76043;-27
2022/04/20 11:01:32;;;;;;;3.90;3.50;;;;;;;8.91;46.25;98150.33;104367;1281;74502;-25
2022/04/20 11:04:10;;;;;;;4.40;3.60;;;;;;;9.12;46.48;98139.57;104606;1275;61125;-26
2022/04/20 11:06:59;;;;;;;6.10;4.00;;;;;;;8.80;46.36;98134.44;104621;1277;60992;-27
2022/04/20 11:09:42;;;;;;;4.70;3.50;;;;;;;8.56;46.42;98138.83;104649;1277;74516;-26
2022/04/20 11:21:26;;;;;;;5.50;3.60;;;;;;;9.89;43.81;98135.55;104436;1278;61165;-27
2022/04/20 11:24:11;;;;;;;3.50;2.50;;;;;;;10.13;43.10;98132.35;104660;1276;74712;-27
2022/04/20 11:26:54;;;;;;;3.50;2.70;;;;;;;10.64;42.16;98137.21;104306;1277;76126;-27
2022/04/20 11:29:28;;;;;;;4.60;2.50;;;;;;;10.68;43.05;98131.67;104345;1277;74432;-27
2022/04/20 11:32:15;;;;;;;4.00;3.50;;;;;;;10.03;43.85;98132.73;104498;1277;63163;-25
2022/04/20 11:35:06;;;;;;;5.30;2.70;;;;;;;9.69;44.64;98138.12;104624;1274;61126;-26
2022/04/20 11:37:34;;;;;;;7.70;3.40;;;;;;;10.08;44.27;98133.70;104415;1275;74834;-26
2022/04/20 11:40:12;;;;;;;4.70;2.70;;;;;;;9.84;43.16;98135.75;104296;1277;76102;-26
2022/04/20 11:42:41;;;;;;;3.90;3.30;;;;;;;10.27;42.56;98132.39;104672;1274;72265;-28
2022/04/20 11:45:09;;;;;;;4.90;3.10;;;;;;;10.76;41.09;98138.15;104736;1277;61147;-27
2022/04/20 11:47:40;;;;;;;3.50;3.20;;;;;;;10.98;41.12;98133.46;104663;1275;61134;-27
2022/04/20 11:50:09;;;;;;;4.70;3.10;;;;;;;10.62;43.54;98139.22;104539;1275;72522;-28
2022/04/20 11:53:02;;;;;;;4.70;3.20;;;;;;;10.80;44.44;98140.77;104734;1274;75905;-27
2022/04/20 11:55:50;;;;;;;2.80;2.60;;;;;;;10.13;43.62;98145.80;104385;1277;74454;-26
2022/04/20 11:58:17;;;;;;;3.60;3.20;;;;;;;9.93;44.43;98147.70;104612;1274;61945;-27
2022/04/20 12:01:06;;;;;;;4.50;3.10;;;;;;;9.99;44.53;98149.77;104407;1275;62086;-26
2022/04/20 12:03:42;;;;;;;14.40;4.00;;;;;;;9.78;45.01;98142.88;104740;1277;73596;-26
2022/04/20 12:06:10;;;;;;;5.30;4.00;;;;;;;9.50;45.74;98133.61;104579;1277;76097;-27
2022/04/20 12:08:41;;;;;;;4.10;3.60;;;;;;;9.48;46.30;98145.54;104664;1274;72334;-28
2022/04/20 12:11:11;;;;;;;6.00;3.90;;;;;;;9.63;46.76;98145.39;104394;1277;61162;-26
2022/04/20 12:13:40;;;;;;;3.50;3.20;;;;;;;9.81;46.80;98147.71;104416;1275;61185;-26
2022/04/20 12:16:12;;;;;;;3.50;3.20;;;;;;;10.37;46.15;98150.08;104741;1277;74600;-26
2022/04/20 12:18:59;;;;;;;4.80;3.50;;;;;;;10.25;45.59;98153.80;104515;1274;77015;-27
2022/04/20 12:22:06;;;;;;;4.70;3.70;;;;;;;10.26;45.03;98152.94;104609;1275;74389;-26
2022/04/20 12:24:33;;;;;;;4.70;3.90;;;;;;;10.44;44.36;98150.59;104197;1277;62794;-26
2022/04/20 12:27:01;;;;;;;4.40;3.90;;;;;;;9.91;43.89;98145.81;104648;1274;61131;-27
2022/04/20 12:29:55;;;;;;;4.00;3.30;;;;;;;9.83;43.76;98150.36;104583;1277;74959;-26
2022/04/20 12:32:41;;;;;;;4.60;3.70;;;;;;;9.93;45.10;98150.85;104621;1274;74910;-27
2022/04/20 12:35:09;;;;;;;5.50;4.00;;;;;;;9.67;46.93;98134.80;104289;1280;74537;-27
2022/04/20 12:37:44;;;;;;;83.00;6.00;;;;;;;9.67;46.95;98146.13;104555;1275;61176;-26
2022/04/20 12:40:26;;;;;;;5.00;3.50;;;;;;;9.58;47.03;98145.04;104565;1275;62500;-26
2022/04/20 12:43:05;;;;;;;4.20;3.70;;;;;;;9.55;47.40;98146.67;104618;1274;74697;-26
2022/04/20 12:45:37;;;;;;;5.40;4.50;;;;;;;9.54;46.85;98152.83;104376;1275;76060;-25
2022/04/20 12:48:12;;;;;;;5.10;4.00;;;;;;;9.54;46.70;98147.48;104735;1274;74389;-26
2022/04/20 12:50:44;;;;;;;5.40;4.00;;;;;;;9.31;47.39;98149.31;104738;1274;62072;-26
2022/04/20 12:53:12;;;;;;;5.00;4.50;;;;;;;9.44;47.45;98144.20;104636;1274;62012;-25
2022/04/20 13:04:16;;;;;;;5.50;3.90;;;;;;;9.07;47.98;98148.36;104438;1279;61165;-28
2022/04/20 13:06:43;;;;;;;8.70;4.60;;;;;;;9.19;47.80;98150.95;104676;1275;61869;-26
2022/04/20 13:09:31;;;;;;;5.40;4.30;;;;;;;9.08;47.64;98142.37;104596;1275;73928;-29
2022/04/20 13:12:00;;;;;;;3.80;2.80;;;;;;;9.24;46.55;98140.11;104315;1277;75922;-27
2022/04/20 13:14:27;;;;;;;5.90;3.40;;;;;;;9.26;46.26;98139.20;104382;1277;73350;-27